Time;durP1;ratioP1;P1;durP2;ratioP2;P2;SDS_P1;SDS_P2;PMS_P1;PMS_P2;Temp;Humidity;BMP_temperature;BMP_pressure;BME280_temperature;BME280_humidity;BME280_pressure;Samples;Min_cycle;Max_cycle;Signal;HPM_P1;HPM_P2
2022/07/28 00:01:33;;;;;;;3.70;2.00;;;16.30;1.00;;;;;;5115290;28;20210;-75
2022/07/28 00:03:59;;;;;;;5.70;2.00;;;16.30;1.00;;;;;;5115177;28;20173;-75
2022/07/28 00:06:25;;;;;;;7.30;2.10;;;16.30;1.00;;;;;;5115045;28;20210;-75
2022/07/28 00:08:51;;;;;;;4.50;2.03;;;16.30;1.00;;;;;;5081246;28;20256;-75
2022/07/28 00:11:16;;;;;;;5.13;2.20;;;16.30;1.00;;;;;;5074210;28;20191;-74
2022/07/28 00:13:42;;;;;;;5.90;2.00;;;16.20;1.00;;;;;;5074307;28;20211;-75
2022/07/28 00:16:08;;;;;;;4.13;2.10;;;16.10;1.00;;;;;;5074409;28;20176;-75
2022/07/28 00:18:52;;;;;;;2.40;2.00;;;16.10;1.00;;;;;;5076933;28;20191;-75
2022/07/28 00:21:18;;;;;;;6.50;2.13;;;16.10;1.00;;;;;;5073871;28;20251;-75
2022/07/28 00:23:43;;;;;;;5.70;2.30;;;16.00;1.00;;;;;;5072871;28;20176;-75
2022/07/28 00:26:10;;;;;;;4.07;2.00;;;16.10;1.00;;;;;;5073985;28;20234;-75
2022/07/28 00:28:36;;;;;;;4.57;2.07;;;16.00;1.00;;;;;;5074135;28;20241;-75
2022/07/28 00:31:03;;;;;;;2.67;2.00;;;16.00;1.00;;;;;;5074002;28;20628;-75
2022/07/28 00:33:28;;;;;;;5.50;1.87;;;15.90;1.00;;;;;;5072623;28;20204;-75
2022/07/28 00:35:54;;;;;;;5.57;2.10;;;15.90;1.00;;;;;;5073530;28;20169;-75
2022/07/28 00:38:19;;;;;;;5.07;2.00;;;15.80;1.00;;;;;;5073867;28;20650;-75
2022/07/28 00:43:29;;;;;;;3.43;2.30;;;15.70;1.00;;;;;;5073866;28;20179;-75
2022/07/28 00:45:54;;;;;;;2.13;1.83;;;15.70;1.00;;;;;;5072470;28;20541;-75
2022/07/28 00:48:20;;;;;;;6.50;2.00;;;15.60;1.00;;;;;;5073816;28;20177;-75
2022/07/28 00:50:46;;;;;;;5.03;2.50;;;15.50;1.00;;;;;;5073272;28;20164;-75
2022/07/28 00:53:11;;;;;;;9.30;2.00;;;15.50;1.00;;;;;;5073460;28;20200;-75
2022/07/28 00:55:38;;;;;;;8.03;2.40;;;15.50;1.00;;;;;;5073474;28;20685;-75
2022/07/28 00:58:04;;;;;;;5.40;2.13;;;15.50;1.00;;;;;;5073625;28;20177;-75
2022/07/28 01:00:30;;;;;;;4.87;2.03;;;15.40;1.00;;;;;;5073517;28;20173;-75
2022/07/28 01:02:56;;;;;;;2.17;1.90;;;15.40;1.00;;;;;;5073429;28;20188;-75
2022/07/28 01:05:22;;;;;;;2.73;2.17;;;15.40;1.00;;;;;;5073127;28;20184;-75
2022/07/28 01:07:59;;;;;;;2.70;2.00;;;15.40;1.00;;;;;;5079006;28;20250;-75
2022/07/28 01:10:31;;;;;;;4.30;2.33;;;15.30;1.00;;;;;;5114132;28;20206;-75
2022/07/28 01:13:05;;;;;;;5.30;2.30;;;15.30;1.00;;;;;;5114072;28;20199;-74
2022/07/28 01:15:36;;;;;;;4.87;2.13;;;15.30;1.00;;;;;;5113861;28;20167;-75
2022/07/28 01:18:30;;;;;;;2.90;2.30;;;15.20;1.00;;;;;;5113701;28;20174;-74
2022/07/28 01:21:24;;;;;;;5.70;2.30;;;15.20;1.00;;;;;;5113451;28;20253;-74
2022/07/28 01:23:53;;;;;;;3.27;2.30;;;15.20;1.00;;;;;;5109785;28;20182;-75
2022/07/28 01:26:41;;;;;;;2.10;2.00;;;15.30;1.00;;;;;;5113593;28;20171;-74
2022/07/28 01:29:14;;;;;;;7.27;2.17;;;15.20;1.00;;;;;;5095518;28;20166;-74
2022/07/28 01:31:43;;;;;;;3.53;2.10;;;15.20;1.00;;;;;;5113807;28;20166;-73
2022/07/28 01:34:26;;;;;;;6.10;1.90;;;15.20;1.00;;;;;;5113386;28;20698;-75
2022/07/28 01:36:57;;;;;;;4.07;2.13;;;15.20;1.00;;;;;;5113426;28;20179;-75
2022/07/28 01:39:27;;;;;;;3.10;1.70;;;15.20;1.00;;;;;;5113572;28;20167;-74
2022/07/28 01:41:54;;;;;;;4.43;2.10;;;15.20;1.00;;;;;;5113954;28;20233;-74
2022/07/28 01:44:23;;;;;;;4.90;1.90;;;15.20;1.00;;;;;;5113500;28;20270;-75
2022/07/28 01:46:51;;;;;;;9.73;2.10;;;15.20;1.00;;;;;;5113533;28;20182;-75
2022/07/28 01:49:20;;;;;;;4.17;1.83;;;15.20;1.00;;;;;;5113102;28;20190;-75
2022/07/28 01:51:46;;;;;;;4.37;1.70;;;15.10;1.00;;;;;;5113552;28;20167;-75
2022/07/28 01:54:13;;;;;;;3.17;1.70;;;15.10;1.00;;;;;;5113418;28;20202;-75
2022/07/28 01:56:40;;;;;;;4.20;1.90;;;15.10;1.00;;;;;;5113490;28;20168;-75
2022/07/28 01:59:10;;;;;;;3.87;1.87;;;15.10;1.00;;;;;;5113419;28;20188;-75
2022/07/28 02:01:41;;;;;;;3.77;1.60;;;15.10;1.00;;;;;;5113697;28;20176;-75
2022/07/28 02:04:09;;;;;;;3.60;1.90;;;15.10;1.00;;;;;;5112906;28;20179;-75
2022/07/28 02:06:37;;;;;;;2.70;2.00;;;15.10;1.00;;;;;;5113396;28;20263;-75
2022/07/28 02:09:05;;;;;;;2.90;1.90;;;15.00;1.00;;;;;;5078206;28;20579;-75
2022/07/28 02:11:41;;;;;;;2.60;1.90;;;15.00;1.00;;;;;;5072843;28;20211;-75
2022/07/28 02:14:08;;;;;;;2.20;1.57;;;15.00;1.00;;;;;;5072867;28;20212;-74
2022/07/28 02:16:33;;;;;;;2.50;1.60;;;14.90;1.00;;;;;;5072592;28;20173;-75
2022/07/28 02:19:00;;;;;;;5.00;1.97;;;14.90;1.00;;;;;;5072415;28;20168;-75
2022/07/28 02:21:27;;;;;;;4.87;2.00;;;14.90;1.00;;;;;;5072666;28;20169;-74
2022/07/28 02:23:54;;;;;;;4.07;1.80;;;14.90;1.00;;;;;;5071534;28;20189;-74
2022/07/28 02:26:26;;;;;;;1.93;1.40;;;14.90;1.00;;;;;;5072518;28;20169;-74
2022/07/28 02:28:56;;;;;;;3.77;1.80;;;14.90;1.00;;;;;;5072507;28;20176;-74
2022/07/28 02:31:27;;;;;;;3.63;2.13;;;14.90;1.00;;;;;;5072682;28;20164;-74
2022/07/28 02:33:59;;;;;;;3.60;1.87;;;14.90;1.00;;;;;;5073501;28;20228;-74
2022/07/28 02:36:33;;;;;;;4.07;1.80;;;14.90;1.00;;;;;;5074797;28;20191;-74
2022/07/28 02:39:11;;;;;;;2.83;1.90;;;14.80;1.00;;;;;;5076163;28;20165;-74
2022/07/28 02:41:41;;;;;;;3.20;2.00;;;14.90;1.00;;;;;;5075767;28;20164;-74
2022/07/28 02:44:24;;;;;;;3.30;1.90;;;14.80;1.00;;;;;;5076041;28;20247;-74
2022/07/28 02:46:52;;;;;;;3.10;1.87;;;14.80;1.00;;;;;;5075659;28;20188;-74
2022/07/28 02:49:28;;;;;;;4.03;1.60;;;14.80;1.00;;;;;;5075970;28;20533;-74
2022/07/28 02:51:55;;;;;;;5.07;1.87;;;14.70;1.00;;;;;;5075609;28;20183;-74
2022/07/28 02:54:23;;;;;;;3.47;1.63;;;14.60;1.00;;;;;;5074508;28;20563;-74
2022/07/28 02:56:50;;;;;;;4.63;2.13;;;14.60;1.00;;;;;;5075750;28;20169;-74
2022/07/28 02:59:18;;;;;;;2.77;1.63;;;14.60;1.00;;;;;;5075847;28;20175;-74
2022/07/28 03:01:44;;;;;;;4.30;2.10;;;14.60;1.00;;;;;;5075610;28;20176;-75
2022/07/28 03:04:12;;;;;;;2.43;1.80;;;14.60;1.00;;;;;;5075517;28;20172;-75
2022/07/28 03:06:39;;;;;;;3.47;1.97;;;14.50;1.00;;;;;;5075600;28;20173;-75
2022/07/28 03:09:06;;;;;;;4.60;1.87;;;14.50;1.00;;;;;;5102122;28;20227;-74
2022/07/28 03:11:32;;;;;;;3.30;1.70;;;14.50;1.00;;;;;;5116204;28;20524;-75
2022/07/28 03:13:58;;;;;;;4.60;1.77;;;14.40;1.00;;;;;;5115904;28;20210;-75
2022/07/28 03:16:23;;;;;;;2.70;2.00;;;14.50;1.00;;;;;;5097499;28;20175;-75
2022/07/28 03:18:49;;;;;;;5.70;2.50;;;14.40;1.00;;;;;;5115869;28;20178;-75
2022/07/28 03:21:14;;;;;;;3.40;2.00;;;14.40;1.00;;;;;;5097387;28;20174;-75
2022/07/28 03:23:49;;;;;;;4.57;2.40;;;14.40;1.00;;;;;;5116147;28;20206;-74
2022/07/28 03:26:29;;;;;;;7.87;2.50;;;14.40;1.00;;;;;;5115811;28;20247;-74
2022/07/28 03:28:57;;;;;;;6.80;2.40;;;14.40;1.00;;;;;;5115633;28;20167;-74
2022/07/28 03:31:24;;;;;;;1.97;1.87;;;14.40;1.00;;;;;;5114936;28;20650;-75
2022/07/28 03:33:50;;;;;;;2.33;1.80;;;14.40;1.00;;;;;;5115972;28;20272;-74
2022/07/28 03:36:25;;;;;;;3.67;1.90;;;14.50;1.00;;;;;;5115616;28;20278;-75
2022/07/28 03:38:57;;;;;;;6.37;2.20;;;14.40;1.00;;;;;;5115666;28;20171;-74
2022/07/28 03:41:25;;;;;;;4.03;2.00;;;14.40;1.00;;;;;;5096943;28;20576;-75
2022/07/28 03:43:53;;;;;;;3.10;1.80;;;14.40;1.00;;;;;;5115098;28;20187;-75
2022/07/28 03:46:20;;;;;;;3.40;2.10;;;14.40;1.00;;;;;;5114269;28;20172;-74
2022/07/28 03:48:46;;;;;;;2.63;2.00;;;14.40;1.00;;;;;;5115242;28;20170;-75
2022/07/28 03:51:11;;;;;;;3.83;2.20;;;14.40;1.00;;;;;;5115335;28;20175;-74
2022/07/28 03:53:38;;;;;;;7.73;2.17;;;14.30;1.00;;;;;;5115004;28;20199;-73
2022/07/28 03:56:03;;;;;;;2.67;2.00;;;14.40;1.00;;;;;;5114912;28;20175;-75
2022/07/28 03:58:29;;;;;;;5.53;2.10;;;14.40;1.00;;;;;;5114749;28;20169;-75
2022/07/28 04:00:56;;;;;;;5.27;2.13;;;14.40;1.00;;;;;;5114629;28;20167;-74
2022/07/28 04:03:22;;;;;;;8.60;2.40;;;14.30;1.00;;;;;;5096747;28;20718;-75
2022/07/28 04:05:48;;;;;;;5.30;2.17;;;14.30;1.00;;;;;;5115270;28;20212;-75
2022/07/28 04:08:13;;;;;;;6.93;2.17;;;14.30;1.00;;;;;;5114114;28;20233;-74
2022/07/28 04:10:39;;;;;;;3.67;1.93;;;14.30;1.00;;;;;;5096043;28;20327;-75
2022/07/28 04:13:05;;;;;;;9.87;2.20;;;14.20;1.00;;;;;;5095812;28;20203;-74
2022/07/28 04:15:31;;;;;;;4.90;2.40;;;14.30;1.00;;;;;;5114580;28;20182;-74
2022/07/28 04:17:57;;;;;;;5.53;2.40;;;14.30;1.00;;;;;;5114194;28;20187;-74
2022/07/28 04:20:24;;;;;;;8.83;2.43;;;14.30;1.00;;;;;;5114494;28;20180;-74
2022/07/28 04:22:51;;;;;;;8.37;2.20;;;14.30;1.00;;;;;;5114686;28;20171;-74
2022/07/28 04:25:19;;;;;;;4.87;2.40;;;14.30;1.00;;;;;;5114569;28;20236;-74
2022/07/28 04:27:44;;;;;;;5.27;2.37;;;14.30;1.00;;;;;;5114274;28;20175;-74
2022/07/28 04:30:12;;;;;;;3.53;2.50;;;14.30;1.00;;;;;;5114215;28;20173;-75
2022/07/28 04:32:39;;;;;;;4.83;2.53;;;14.40;1.00;;;;;;5114383;28;20163;-74
2022/07/28 04:35:06;;;;;;;2.67;2.40;;;14.40;1.00;;;;;;5113841;28;20280;-74
2022/07/28 04:37:31;;;;;;;3.20;2.40;;;14.40;1.00;;;;;;5113302;28;20287;-74
2022/07/28 04:39:57;;;;;;;4.53;2.20;;;14.30;1.00;;;;;;5096068;28;20270;-74
2022/07/28 04:42:23;;;;;;;4.57;2.23;;;14.20;1.00;;;;;;5113854;28;20174;-74
2022/07/28 04:44:48;;;;;;;4.07;2.30;;;14.20;1.00;;;;;;5114031;28;20171;-73
2022/07/28 04:47:15;;;;;;;5.63;2.07;;;14.20;1.00;;;;;;5113970;28;20588;-74
2022/07/28 04:49:41;;;;;;;3.43;2.17;;;14.10;1.00;;;;;;5113794;28;20262;-74
2022/07/28 04:52:09;;;;;;;3.67;2.30;;;14.10;1.00;;;;;;5113653;28;20205;-75
2022/07/28 04:54:36;;;;;;;5.17;2.40;;;14.10;1.00;;;;;;5113784;28;20207;-74
2022/07/28 04:57:02;;;;;;;4.97;2.50;;;14.10;1.00;;;;;;5112363;28;20171;-74
2022/07/28 04:59:28;;;;;;;4.63;2.30;;;14.10;1.00;;;;;;5113496;28;20171;-74
2022/07/28 05:01:56;;;;;;;10.10;3.30;;;14.10;1.00;;;;;;5113328;28;20311;-74
2022/07/28 05:04:22;;;;;;;3.83;2.17;;;14.10;1.00;;;;;;5113779;28;20685;-74
2022/07/28 05:06:47;;;;;;;2.80;2.30;;;14.10;1.00;;;;;;5113585;28;20174;-74
2022/07/28 05:09:13;;;;;;;4.63;2.50;;;14.10;1.00;;;;;;5076941;28;20339;-74
2022/07/28 05:11:38;;;;;;;3.50;2.53;;;14.20;1.00;;;;;;5072549;28;20176;-74
2022/07/28 05:14:04;;;;;;;5.33;2.60;;;14.30;1.00;;;;;;5072898;28;20211;-74
2022/07/28 05:16:30;;;;;;;5.83;2.77;;;14.40;1.00;;;;;;5072950;28;20172;-74
2022/07/28 05:18:55;;;;;;;2.40;2.10;;;14.40;1.00;;;;;;5072249;28;20616;-74
2022/07/28 05:21:21;;;;;;;2.93;2.50;;;14.40;1.00;;;;;;5072729;28;20205;-74
2022/07/28 05:23:46;;;;;;;5.87;2.73;;;14.30;1.00;;;;;;5072402;28;20646;-74
2022/07/28 05:26:13;;;;;;;5.07;2.60;;;14.40;1.00;;;;;;5072359;28;20176;-74
2022/07/28 05:28:39;;;;;;;3.60;2.23;;;14.30;1.00;;;;;;5072628;28;20203;-74
2022/07/28 05:31:06;;;;;;;8.27;2.50;;;14.40;1.00;;;;;;5072788;28;20616;-73
2022/07/28 05:33:32;;;;;;;3.97;2.20;;;14.70;1.00;;;;;;5070874;28;20599;-74
2022/07/28 05:35:58;;;;;;;4.57;2.40;;;15.70;1.00;;;;;;5072332;28;20584;-74
2022/07/28 05:38:25;;;;;;;5.97;2.20;;;17.00;1.00;;;;;;5070480;28;20187;-75
2022/07/28 05:40:51;;;;;;;4.57;2.23;;;18.10;1.00;;;;;;5072263;28;20575;-76
2022/07/28 05:43:18;;;;;;;3.70;2.50;;;19.60;99.90;;;;;;5072723;28;20177;-77
2022/07/28 05:45:43;;;;;;;8.82;2.22;;;20.50;1.00;;;;;;5070938;28;20172;-77
2022/07/28 05:48:09;;;;;;;3.38;2.00;;;20.50;1.00;;;;;;5072504;28;20631;-77
2022/07/28 05:50:35;;;;;;;4.80;2.40;;;20.70;1.00;;;;;;5072260;28;20640;-77
2022/07/28 05:53:00;;;;;;;4.15;2.10;;;20.90;96.70;;;;;;5070706;28;20165;-78
2022/07/28 05:55:26;;;;;;;3.08;2.15;;;21.30;99.90;;;;;;5071579;28;20181;-77
2022/07/28 05:57:53;;;;;;;3.70;2.00;;;21.60;14.40;;;;;;5071258;28;20222;-77
2022/07/28 06:00:21;;;;;;;6.97;2.22;;;22.20;1.00;;;;;;5072073;28;20172;-78
2022/07/28 06:02:48;;;;;;;4.75;2.17;;;21.80;1.00;;;;;;5071884;28;20169;-77
2022/07/28 06:05:17;;;;;;;5.28;2.40;;;22.00;1.00;;;;;;5071840;28;20176;-77
2022/07/28 06:07:45;;;;;;;4.40;2.40;;;22.80;1.00;;;;;;5075236;28;20177;-77
2022/07/28 06:10:12;;;;;;;4.68;2.50;;;23.30;99.90;;;;;;5097144;28;20622;-78
2022/07/28 06:12:39;;;;;;;3.28;2.50;;;23.40;99.90;;;;;;5116500;28;20258;-79
2022/07/28 06:15:06;;;;;;;6.85;2.45;;;23.40;99.90;;;;;;5116727;28;20203;-78
2022/07/28 06:17:32;;;;;;;6.65;2.60;;;23.20;99.90;;;;;;5116831;28;20167;-77
2022/07/28 06:19:57;;;;;;;3.08;2.33;;;22.30;1.00;;;;;;5116110;28;20724;-78
2022/07/28 06:22:23;;;;;;;17.15;2.20;;;23.20;99.90;;;;;;5116099;28;20167;-78
2022/07/28 06:24:48;;;;;;;4.18;2.03;;;23.30;99.90;;;;;;5116130;28;20614;-77
2022/07/28 06:27:14;;;;;;;3.72;2.33;;;22.60;99.90;;;;;;5116299;28;20167;-76
2022/07/28 06:29:39;;;;;;;3.25;2.30;;;21.40;1.00;;;;;;5116266;28;20622;-76
2022/07/28 06:32:05;;;;;;;5.03;2.42;;;21.20;1.00;;;;;;5116356;28;20171;-75
2022/07/28 06:34:31;;;;;;;3.08;2.33;;;20.70;99.90;;;;;;5115727;28;20210;-74
2022/07/28 06:36:56;;;;;;;4.10;2.33;;;20.20;1.00;;;;;;5116167;28;20197;-73
2022/07/28 06:39:22;;;;;;;7.95;2.53;;;19.70;97.10;;;;;;5115328;28;20175;-76
2022/07/28 06:41:47;;;;;;;6.90;2.50;;;19.20;98.90;;;;;;5116172;28;20202;-75
2022/07/28 06:44:13;;;;;;;3.15;2.55;;;19.50;98.80;;;;;;5115764;28;20164;-75
2022/07/28 06:46:39;;;;;;;8.88;2.58;;;19.60;97.50;;;;;;5115631;28;20522;-76
2022/07/28 06:49:05;;;;;;;3.63;2.58;;;19.50;98.50;;;;;;5116248;28;20517;-75
2022/07/28 06:51:31;;;;;;;4.38;2.28;;;18.80;99.80;;;;;;5115546;28;20232;-74
2022/07/28 06:53:57;;;;;;;5.80;2.43;;;18.50;99.90;;;;;;5115441;28;20670;-74
2022/07/28 06:56:22;;;;;;;3.70;2.30;;;18.40;1.00;;;;;;5097663;28;20166;-75
2022/07/28 06:58:48;;;;;;;6.23;2.93;;;18.40;99.90;;;;;;5115614;28;20174;-75
2022/07/28 07:01:14;;;;;;;6.18;2.58;;;18.10;99.90;;;;;;5115438;28;20166;-75
2022/07/28 07:03:41;;;;;;;4.33;2.40;;;18.40;1.00;;;;;;5115474;28;20248;-75
2022/07/28 07:06:07;;;;;;;8.77;2.80;;;18.50;1.00;;;;;;5116002;28;20163;-74
2022/07/28 07:08:33;;;;;;;6.43;2.20;;;19.10;1.00;;;;;;5114733;28;20210;-75
2022/07/28 07:10:59;;;;;;;4.28;2.38;;;20.40;99.90;;;;;;5115741;28;20171;-76
2022/07/28 07:13:25;;;;;;;4.15;2.17;;;21.30;99.90;;;;;;5115508;28;20203;-77
2022/07/28 07:15:51;;;;;;;2.38;2.10;;;22.20;1.00;;;;;;5116019;28;20163;-77
2022/07/28 07:18:17;;;;;;;3.13;2.10;;;23.00;1.00;;;;;;5115488;28;20280;-78
2022/07/28 07:20:42;;;;;;;3.13;2.30;;;23.90;99.90;;;;;;5114361;28;20167;-79
2022/07/28 07:23:08;;;;;;;4.57;2.22;;;24.20;99.90;;;;;;5115114;28;20167;-78
2022/07/28 07:25:34;;;;;;;4.80;2.08;;;24.80;99.90;;;;;;5114226;28;20876;-77
2022/07/28 07:27:59;;;;;;;3.35;2.10;;;24.30;99.90;;;;;;5097551;28;20175;-75
2022/07/28 07:30:25;;;;;;;4.38;2.03;;;24.10;99.90;;;;;;5107627;28;20254;-76
2022/07/28 07:32:50;;;;;;;3.40;2.20;;;25.40;99.90;;;;;;5111905;28;20175;-77
2022/07/28 07:35:16;;;;;;;3.53;2.30;;;26.80;99.90;;;;;;5108851;28;20702;-77
2022/07/28 07:37:42;;;;;;;3.08;1.90;;;27.20;99.90;;;;;;5113646;28;20236;-76
2022/07/28 07:40:09;;;;;;;3.25;2.40;;;26.80;99.90;;;;;;5114478;28;20199;-75
2022/07/28 07:42:34;;;;;;;5.32;2.10;;;26.20;99.90;;;;;;5112847;28;20184;-74
2022/07/28 07:45:00;;;;;;;3.33;2.33;;;25.00;99.90;;;;;;5113676;28;20212;-74
2022/07/28 07:47:26;;;;;;;7.57;2.20;;;25.20;99.90;;;;;;5114269;28;20250;-74
2022/07/28 07:49:51;;;;;;;3.65;2.15;;;25.30;99.90;;;;;;5113163;28;20175;-76
2022/07/28 07:52:17;;;;;;;5.32;2.22;;;25.90;99.90;;;;;;5094959;28;20175;-81
2022/07/28 07:54:42;;;;;;;2.97;2.13;;;25.70;99.90;;;;;;5113953;28;20246;-78
2022/07/28 07:57:09;;;;;;;4.20;2.03;;;25.00;99.90;;;;;;5107447;28;20618;-77
2022/07/28 07:59:34;;;;;;;3.15;2.05;;;23.50;99.90;;;;;;5083729;28;20175;-81
2022/07/28 08:02:00;;;;;;;2.45;2.22;;;24.20;99.90;;;;;;5088189;28;20167;-78
2022/07/28 08:04:26;;;;;;;5.85;2.05;;;24.70;99.90;;;;;;5108443;28;20182;-79
2022/07/28 08:06:52;;;;;;;4.10;1.85;;;24.80;99.90;;;;;;5107933;28;20186;-78
2022/07/28 08:09:17;;;;;;;2.85;2.00;;;24.90;99.90;;;;;;5105562;28;20219;-79
2022/07/28 08:11:43;;;;;;;5.45;2.00;;;24.10;99.90;;;;;;5108556;28;20177;-80
2022/07/28 08:14:09;;;;;;;4.22;1.90;;;23.60;99.90;;;;;;5095120;28;20654;-79
2022/07/28 08:16:35;;;;;;;2.88;1.90;;;23.70;99.90;;;;;;5112426;28;20167;-79
2022/07/28 08:19:00;;;;;;;6.40;2.53;;;23.40;99.90;;;;;;5091405;28;20211;-80
2022/07/28 08:21:27;;;;;;;5.20;2.17;;;23.20;99.90;;;;;;5112578;28;20541;-81
2022/07/28 08:23:57;;;;;;;3.67;2.08;;;22.90;99.90;;;;;;5113445;28;20245;-82
2022/07/28 08:26:23;;;;;;;4.72;2.10;;;22.70;99.90;;;;;;5111711;28;20235;-80
2022/07/28 08:28:49;;;;;;;1.98;1.70;;;22.80;99.90;;;;;;5113105;28;20171;-81
2022/07/28 08:31:20;;;;;;;5.70;2.25;;;23.00;99.90;;;;;;5112503;28;20254;-80
2022/07/28 08:33:47;;;;;;;5.30;1.70;;;23.80;99.90;;;;;;5112516;28;20203;-78
2022/07/28 08:36:13;;;;;;;4.03;1.98;;;23.50;99.90;;;;;;5093187;28;20285;-79
2022/07/28 08:38:39;;;;;;;3.10;1.75;;;23.90;99.90;;;;;;5094669;28;20267;-81
2022/07/28 08:41:12;;;;;;;3.58;2.17;;;24.10;99.90;;;;;;5094818;28;20473;-81
2022/07/28 08:43:41;;;;;;;2.17;1.80;;;24.10;99.90;;;;;;5094696;28;20250;-78
2022/07/28 08:46:07;;;;;;;2.65;1.67;;;25.10;99.90;;;;;;5112148;28;20253;-74
2022/07/28 08:48:36;;;;;;;6.15;2.22;;;25.20;99.90;;;;;;5102584;28;20172;-72
2022/07/28 08:51:07;;;;;;;4.38;1.67;;;25.60;99.90;;;;;;5108182;28;20210;-75
2022/07/28 08:53:35;;;;;;;4.22;1.75;;;26.50;99.90;;;;;;5103852;28;20727;-76
2022/07/28 08:56:21;;;;;;;3.90;2.03;;;27.30;99.90;;;;;;5107220;28;20170;-78
2022/07/28 08:58:46;;;;;;;2.90;1.67;;;26.70;99.90;;;;;;5104250;28;20175;-77
2022/07/28 09:01:12;;;;;;;5.47;1.90;;;25.50;99.90;;;;;;5104837;28;20170;-75
2022/07/28 09:03:38;;;;;;;2.75;1.50;;;25.40;99.90;;;;;;5103722;28;20175;-75
2022/07/28 09:06:04;;;;;;;1.90;1.65;;;25.10;99.90;;;;;;5107605;28;20203;-76
2022/07/28 09:08:30;;;;;;;3.25;1.80;;;24.40;99.90;;;;;;5095455;28;20238;-76
2022/07/28 09:10:56;;;;;;;2.90;1.77;;;23.80;99.90;;;;;;5092056;28;20633;-74
2022/07/28 09:13:22;;;;;;;3.35;1.88;;;23.80;99.90;;;;;;5111779;28;20202;-76
2022/07/28 09:15:47;;;;;;;2.13;1.50;;;24.10;99.90;;;;;;5112265;28;20642;-74
2022/07/28 09:18:15;;;;;;;2.20;1.50;;;24.20;99.90;;;;;;5110321;28;20254;-72
2022/07/28 09:20:42;;;;;;;2.97;1.75;;;23.50;99.90;;;;;;5093459;28;20171;-75
2022/07/28 09:23:09;;;;;;;4.03;1.90;;;23.30;99.90;;;;;;5109274;28;20171;-75
2022/07/28 09:25:35;;;;;;;1.70;1.52;;;23.60;99.90;;;;;;5111970;28;20171;-76
2022/07/28 09:28:07;;;;;;;4.68;1.70;;;24.10;99.90;;;;;;5111806;28;20167;-73
2022/07/28 09:30:36;;;;;;;4.32;1.60;;;24.80;99.90;;;;;;5109376;28;20167;-74
2022/07/28 09:33:23;;;;;;;2.58;1.50;;;25.80;99.90;;;;;;5111177;28;20206;-73
2022/07/28 09:35:55;;;;;;;5.82;1.70;;;25.50;99.90;;;;;;5112483;28;20332;-76
2022/07/28 09:38:22;;;;;;;2.88;1.92;;;25.70;99.90;;;;;;5111679;28;20163;-74
2022/07/28 09:40:59;;;;;;;5.72;1.80;;;25.30;99.90;;;;;;5111220;28;20248;-75
2022/07/28 09:43:37;;;;;;;1.92;1.63;;;24.90;99.90;;;;;;5113670;28;20253;-76
2022/07/28 09:46:13;;;;;;;2.13;1.55;;;24.60;99.90;;;;;;5107381;28;20178;-76
2022/07/28 09:48:47;;;;;;;2.75;1.70;;;24.10;99.90;;;;;;5115045;28;20167;-77
2022/07/28 09:51:14;;;;;;;4.03;1.95;;;24.00;99.90;;;;;;5109620;28;20194;-75
2022/07/28 09:53:41;;;;;;;3.80;1.55;;;23.80;99.90;;;;;;5115302;28;20186;-76
2022/07/28 09:56:07;;;;;;;4.03;1.63;;;24.30;99.90;;;;;;5114283;28;20159;-73
2022/07/28 09:58:33;;;;;;;3.22;1.60;;;24.40;99.90;;;;;;5114929;28;20160;-75
2022/07/28 10:01:08;;;;;;;6.18;2.08;;;24.30;99.90;;;;;;5115561;28;20197;-77
2022/07/28 10:03:39;;;;;;;5.38;1.77;;;24.40;99.90;;;;;;5112925;28;20653;-79
2022/07/28 10:06:10;;;;;;;2.13;1.92;;;25.20;99.90;;;;;;5114866;28;20171;-73
2022/07/28 10:08:41;;;;;;;4.55;2.10;;;24.30;99.90;;;;;;5115473;28;20226;-75
2022/07/28 10:11:07;;;;;;;3.35;2.20;;;24.30;99.90;;;;;;5107246;28;20163;-76
2022/07/28 10:13:33;;;;;;;3.25;1.63;;;24.40;99.90;;;;;;5114746;28;20710;-78
2022/07/28 10:16:09;;;;;;;1.88;1.25;;;24.70;99.90;;;;;;5115212;28;20232;-72
2022/07/28 10:18:34;;;;;;;6.10;1.80;;;24.70;99.90;;;;;;5114570;28;20179;-72
2022/07/28 10:21:02;;;;;;;2.50;1.58;;;24.30;99.90;;;;;;5115025;28;20167;-72
2022/07/28 10:23:28;;;;;;;4.10;1.63;;;24.10;99.90;;;;;;5115522;28;20250;-73
2022/07/28 10:25:57;;;;;;;3.30;1.80;;;23.70;99.90;;;;;;5112276;28;20175;-75
2022/07/28 10:28:23;;;;;;;7.20;2.22;;;23.60;99.90;;;;;;5105919;28;20258;-72
2022/07/28 10:30:53;;;;;;;2.22;1.05;;;23.60;99.90;;;;;;5114216;28;20179;-71
2022/07/28 10:33:20;;;;;;;2.30;1.15;;;22.90;99.90;;;;;;5114130;28;20159;-71
2022/07/28 10:35:48;;;;;;;4.18;1.75;;;22.70;99.90;;;;;;5113339;28;20599;-75
2022/07/28 10:38:15;;;;;;;3.35;1.33;;;22.60;99.90;;;;;;5114652;28;20255;-74
2022/07/28 10:40:46;;;;;;;3.63;1.90;;;22.80;99.90;;;;;;5114290;28;20638;-76
2022/07/28 10:43:12;;;;;;;3.42;1.58;;;22.90;99.90;;;;;;5114404;28;20569;-75
2022/07/28 10:45:38;;;;;;;4.78;1.85;;;23.10;99.90;;;;;;5114660;28;20182;-74
2022/07/28 10:48:05;;;;;;;9.57;2.50;;;23.00;99.90;;;;;;5096723;28;20175;-74
2022/07/28 10:50:33;;;;;;;4.80;2.83;;;22.60;99.90;;;;;;5114429;28;20183;-75
2022/07/28 10:53:01;;;;;;;3.35;1.98;;;22.90;99.90;;;;;;5096406;28;20213;-76
2022/07/28 10:55:51;;;;;;;3.88;2.03;;;22.90;99.90;;;;;;5112419;28;20183;-76
2022/07/28 10:58:32;;;;;;;1.95;1.60;;;22.70;99.90;;;;;;5112787;28;20178;-76
2022/07/28 11:00:57;;;;;;;3.60;1.50;;;22.70;99.90;;;;;;5095134;28;20171;-76
2022/07/28 11:03:45;;;;;;;6.45;1.60;;;22.90;99.90;;;;;;5114760;28;20178;-75
2022/07/28 11:06:32;;;;;;;2.78;1.60;;;22.90;99.90;;;;;;5113661;28;20255;-72
2022/07/28 11:09:18;;;;;;;3.17;1.50;;;23.20;99.90;;;;;;5113692;28;20214;-72
2022/07/28 11:11:48;;;;;;;2.53;1.70;;;23.00;99.90;;;;;;5099827;28;20194;-72
2022/07/28 11:14:23;;;;;;;4.78;1.70;;;22.60;99.90;;;;;;5113769;28;20222;-72
2022/07/28 11:17:04;;;;;;;3.35;1.42;;;22.50;99.90;;;;;;5114113;28;20178;-71
2022/07/28 11:19:30;;;;;;;3.78;1.90;;;22.70;99.90;;;;;;5095863;28;20519;-70
2022/07/28 11:22:27;;;;;;;3.20;1.70;;;22.70;99.90;;;;;;5086415;28;20637;-70
2022/07/28 11:25:01;;;;;;;2.85;2.08;;;22.70;99.90;;;;;;5114302;28;20171;-71
2022/07/28 11:27:39;;;;;;;4.28;2.20;;;22.60;99.90;;;;;;5114669;28;20174;-72
2022/07/28 11:30:08;;;;;;;5.75;2.13;;;22.70;99.90;;;;;;5112853;28;20190;-71
2022/07/28 11:32:49;;;;;;;5.65;1.77;;;22.70;99.90;;;;;;5113779;28;20176;-70
2022/07/28 11:35:25;;;;;;;9.15;1.85;;;23.20;99.90;;;;;;5107905;28;20272;-71
2022/07/28 11:38:02;;;;;;;3.40;1.70;;;23.10;99.90;;;;;;5113308;28;20167;-72
2022/07/28 11:40:33;;;;;;;5.07;1.73;;;23.30;99.90;;;;;;5105418;28;20191;-71
2022/07/28 11:43:21;;;;;;;3.70;1.67;;;24.00;99.90;;;;;;5112746;28;20672;-71
2022/07/28 11:45:47;;;;;;;4.53;1.90;;;24.10;99.90;;;;;;5096018;28;20182;-73
2022/07/28 11:48:17;;;;;;;2.15;1.60;;;24.00;99.90;;;;;;5113772;28;20171;-74
2022/07/28 11:51:01;;;;;;;6.22;1.90;;;24.50;99.90;;;;;;5112861;28;20170;-76
2022/07/28 11:53:43;;;;;;;3.92;1.88;;;24.50;99.90;;;;;;5113674;28;20195;-74
2022/07/28 11:56:14;;;;;;;4.10;1.88;;;24.10;99.90;;;;;;5105156;28;20634;-73
2022/07/28 11:58:41;;;;;;;3.45;1.88;;;23.80;99.90;;;;;;5113344;28;20171;-73
2022/07/28 12:01:13;;;;;;;2.22;1.50;;;24.10;99.90;;;;;;5112875;28;20186;-75
2022/07/28 12:03:40;;;;;;;5.35;2.05;;;23.90;99.90;;;;;;5113026;28;20176;-76
2022/07/28 12:06:10;;;;;;;5.55;2.88;;;23.70;99.90;;;;;;5112284;28;20178;-75
2022/07/28 12:08:52;;;;;;;3.80;1.95;;;23.90;99.90;;;;;;5113384;28;20249;-76
2022/07/28 12:11:18;;;;;;;5.78;2.20;;;23.70;99.90;;;;;;5107182;28;20170;-75
2022/07/28 12:13:44;;;;;;;6.28;1.92;;;23.90;99.90;;;;;;5112673;28;20240;-76
2022/07/28 12:16:11;;;;;;;2.97;1.63;;;24.00;99.90;;;;;;5112813;28;20171;-75
2022/07/28 12:18:36;;;;;;;3.65;1.63;;;23.80;99.90;;;;;;5112523;28;20183;-78
2022/07/28 12:21:02;;;;;;;4.03;1.50;;;23.60;99.90;;;;;;5112930;28;20210;-77
2022/07/28 12:23:33;;;;;;;4.43;2.28;;;23.90;99.90;;;;;;5112463;28;20171;-75
2022/07/28 12:26:03;;;;;;;3.65;2.17;;;24.30;99.90;;;;;;5112433;28;20206;-73
2022/07/28 12:28:31;;;;;;;4.45;1.58;;;24.50;99.90;;;;;;5111933;28;20187;-73
2022/07/28 12:31:13;;;;;;;2.25;1.60;;;24.10;99.90;;;;;;5111761;28;20179;-74
2022/07/28 12:33:39;;;;;;;4.30;1.65;;;23.80;99.90;;;;;;5113067;28;20195;-74
2022/07/28 12:36:06;;;;;;;4.35;1.83;;;23.90;99.90;;;;;;5112524;28;20187;-74
2022/07/28 12:38:32;;;;;;;3.17;1.58;;;23.80;99.90;;;;;;5111826;28;20167;-75
2022/07/28 12:40:58;;;;;;;4.13;1.65;;;24.00;99.90;;;;;;5111099;28;20180;-76
2022/07/28 12:43:28;;;;;;;5.53;2.03;;;23.90;99.90;;;;;;5111488;28;20183;-78
2022/07/28 12:45:54;;;;;;;3.97;2.83;;;23.90;99.90;;;;;;5112702;28;20163;-75
2022/07/28 12:48:20;;;;;;;2.80;2.10;;;23.70;99.90;;;;;;5112580;28;20263;-76
2022/07/28 12:50:47;;;;;;;5.40;2.00;;;23.70;99.90;;;;;;5112151;28;20263;-77
2022/07/28 12:53:14;;;;;;;4.20;2.05;;;24.00;99.90;;;;;;5111216;28;20186;-76
2022/07/28 12:55:44;;;;;;;3.33;1.80;;;23.90;99.90;;;;;;5111428;28;20179;-76
2022/07/28 12:58:25;;;;;;;5.60;1.80;;;24.10;99.90;;;;;;5112164;28;20167;-76
2022/07/28 13:00:51;;;;;;;3.08;1.60;;;24.20;99.90;;;;;;5093787;28;20179;-74
2022/07/28 13:03:26;;;;;;;5.00;1.70;;;24.10;99.90;;;;;;5112249;28;20626;-74